sensor_id;sensor_type;location;lat;lon;timestamp;temperature;humidity
33105;DHT22;19476;51.448;6.674;2023-11-21T00:01:31;15.30;54.20
33105;DHT22;19476;51.448;6.674;2023-11-21T00:03:58;15.30;54.30
33105;DHT22;19476;51.448;6.674;2023-11-21T00:06:23;15.30;54.30
33105;DHT22;19476;51.448;6.674;2023-11-21T00:08:49;15.30;54.40
33105;DHT22;19476;51.448;6.674;2023-11-21T00:11:15;15.40;54.50
33105;DHT22;19476;51.448;6.674;2023-11-21T00:13:40;15.40;54.50
33105;DHT22;19476;51.448;6.674;2023-11-21T00:16:06;15.40;54.50
33105;DHT22;19476;51.448;6.674;2023-11-21T00:18:33;15.40;54.50
33105;DHT22;19476;51.448;6.674;2023-11-21T00:20:58;15.40;54.50
33105;DHT22;19476;51.448;6.674;2023-11-21T00:23:24;15.40;54.50
33105;DHT22;19476;51.448;6.674;2023-11-21T00:25:50;15.40;54.60
33105;DHT22;19476;51.448;6.674;2023-11-21T00:28:16;15.40;54.50
33105;DHT22;19476;51.448;6.674;2023-11-21T00:30:42;15.40;54.60
33105;DHT22;19476;51.448;6.674;2023-11-21T00:33:07;15.40;54.70
33105;DHT22;19476;51.448;6.674;2023-11-21T00:35:33;15.40;54.70
33105;DHT22;19476;51.448;6.674;2023-11-21T00:37:59;15.40;54.80
33105;DHT22;19476;51.448;6.674;2023-11-21T00:40:24;15.40;54.90
33105;DHT22;19476;51.448;6.674;2023-11-21T00:42:50;15.40;54.90
33105;DHT22;19476;51.448;6.674;2023-11-21T00:45:16;15.40;55.00
33105;DHT22;19476;51.448;6.674;2023-11-21T00:47:42;15.40;55.00
33105;DHT22;19476;51.448;6.674;2023-11-21T00:50:08;15.40;55.00
33105;DHT22;19476;51.448;6.674;2023-11-21T00:52:34;15.50;55.10
33105;DHT22;19476;51.448;6.674;2023-11-21T00:55:02;15.50;55.10
33105;DHT22;19476;51.448;6.674;2023-11-21T00:57:28;15.50;55.20
33105;DHT22;19476;51.448;6.674;2023-11-21T00:59:54;15.50;55.20
33105;DHT22;19476;51.448;6.674;2023-11-21T01:02:20;15.50;55.20
33105;DHT22;19476;51.448;6.674;2023-11-21T01:04:46;15.50;55.10
33105;DHT22;19476;51.448;6.674;2023-11-21T01:07:13;15.50;55.20
33105;DHT22;19476;51.448;6.674;2023-11-21T01:09:38;15.60;55.20
33105;DHT22;19476;51.448;6.674;2023-11-21T01:12:06;15.60;55.20
33105;DHT22;19476;51.448;6.674;2023-11-21T01:14:32;15.60;55.20
33105;DHT22;19476;51.448;6.674;2023-11-21T01:16:57;15.60;55.20
33105;DHT22;19476;51.448;6.674;2023-11-21T01:19:23;15.60;55.10
33105;DHT22;19476;51.448;6.674;2023-11-21T01:21:49;15.60;55.10
33105;DHT22;19476;51.448;6.674;2023-11-21T01:24:14;15.60;55.10
33105;DHT22;19476;51.448;6.674;2023-11-21T01:26:40;15.60;55.10
33105;DHT22;19476;51.448;6.674;2023-11-21T01:29:06;15.70;55.20
33105;DHT22;19476;51.448;6.674;2023-11-21T01:31:32;15.60;55.20
33105;DHT22;19476;51.448;6.674;2023-11-21T01:33:57;15.70;55.40
33105;DHT22;19476;51.448;6.674;2023-11-21T01:36:30;15.70;55.40
33105;DHT22;19476;51.448;6.674;2023-11-21T01:38:57;15.70;55.40
33105;DHT22;19476;51.448;6.674;2023-11-21T01:41:25;15.70;55.40
33105;DHT22;19476;51.448;6.674;2023-11-21T01:43:52;14.90;55.00
33105;DHT22;19476;51.448;6.674;2023-11-21T01:46:20;15.70;55.40
33105;DHT22;19476;51.448;6.674;2023-11-21T01:48:46;15.70;55.50
33105;DHT22;19476;51.448;6.674;2023-11-21T01:51:13;15.70;55.50
33105;DHT22;19476;51.448;6.674;2023-11-21T01:53:40;15.70;55.50
33105;DHT22;19476;51.448;6.674;2023-11-21T01:56:07;15.70;55.40
33105;DHT22;19476;51.448;6.674;2023-11-21T01:58:34;15.70;55.60
33105;DHT22;19476;51.448;6.674;2023-11-21T02:00:59;15.70;55.60
33105;DHT22;19476;51.448;6.674;2023-11-21T02:03:25;15.70;55.60
33105;DHT22;19476;51.448;6.674;2023-11-21T02:05:52;15.70;55.60
33105;DHT22;19476;51.448;6.674;2023-11-21T02:08:19;15.70;55.80
33105;DHT22;19476;51.448;6.674;2023-11-21T02:10:45;15.70;55.80
33105;DHT22;19476;51.448;6.674;2023-11-21T02:13:11;15.70;55.80
33105;DHT22;19476;51.448;6.674;2023-11-21T02:15:37;15.70;55.90
33105;DHT22;19476;51.448;6.674;2023-11-21T02:18:04;15.70;55.90
33105;DHT22;19476;51.448;6.674;2023-11-21T02:20:31;15.70;55.90
33105;DHT22;19476;51.448;6.674;2023-11-21T02:23:00;15.70;56.00
33105;DHT22;19476;51.448;6.674;2023-11-21T02:25:31;15.70;56.10
33105;DHT22;19476;51.448;6.674;2023-11-21T02:28:01;15.60;56.20
33105;DHT22;19476;51.448;6.674;2023-11-21T02:30:27;15.60;56.30
33105;DHT22;19476;51.448;6.674;2023-11-21T02:32:54;15.60;56.30
33105;DHT22;19476;51.448;6.674;2023-11-21T02:35:20;15.70;56.40
33105;DHT22;19476;51.448;6.674;2023-11-21T02:37:51;15.70;56.40
33105;DHT22;19476;51.448;6.674;2023-11-21T02:40:17;15.70;56.40
33105;DHT22;19476;51.448;6.674;2023-11-21T02:42:44;15.70;56.40
33105;DHT22;19476;51.448;6.674;2023-11-21T02:45:10;15.70;56.40
33105;DHT22;19476;51.448;6.674;2023-11-21T02:47:38;15.70;56.40
33105;DHT22;19476;51.448;6.674;2023-11-21T02:50:04;15.70;56.50
33105;DHT22;19476;51.448;6.674;2023-11-21T02:52:33;15.70;56.40
33105;DHT22;19476;51.448;6.674;2023-11-21T02:54:59;15.70;56.50
33105;DHT22;19476;51.448;6.674;2023-11-21T02:57:25;15.70;56.50
33105;DHT22;19476;51.448;6.674;2023-11-21T02:59:51;15.70;56.50
33105;DHT22;19476;51.448;6.674;2023-11-21T03:02:16;15.70;56.50
33105;DHT22;19476;51.448;6.674;2023-11-21T03:04:42;15.70;56.50
33105;DHT22;19476;51.448;6.674;2023-11-21T03:07:09;15.70;56.50
33105;DHT22;19476;51.448;6.674;2023-11-21T03:09:35;15.70;56.60
33105;DHT22;19476;51.448;6.674;2023-11-21T03:12:01;15.70;56.60
33105;DHT22;19476;51.448;6.674;2023-11-21T03:14:27;15.70;56.60
33105;DHT22;19476;51.448;6.674;2023-11-21T03:16:52;15.60;56.60
33105;DHT22;19476;51.448;6.674;2023-11-21T03:19:19;15.70;57.20
33105;DHT22;19476;51.448;6.674;2023-11-21T03:21:44;15.60;56.70
33105;DHT22;19476;51.448;6.674;2023-11-21T03:24:10;15.60;56.70
33105;DHT22;19476;51.448;6.674;2023-11-21T03:26:35;15.60;56.80
33105;DHT22;19476;51.448;6.674;2023-11-21T03:29:03;15.60;56.90
33105;DHT22;19476;51.448;6.674;2023-11-21T03:31:30;15.60;56.90
33105;DHT22;19476;51.448;6.674;2023-11-21T03:33:56;15.60;56.90
33105;DHT22;19476;51.448;6.674;2023-11-21T03:36:22;15.60;56.90
33105;DHT22;19476;51.448;6.674;2023-11-21T03:38:48;15.60;57.00
33105;DHT22;19476;51.448;6.674;2023-11-21T03:41:14;15.60;57.00
33105;DHT22;19476;51.448;6.674;2023-11-21T03:43:40;15.60;57.10
33105;DHT22;19476;51.448;6.674;2023-11-21T03:46:06;15.60;57.10
33105;DHT22;19476;51.448;6.674;2023-11-21T03:48:32;15.60;57.10
33105;DHT22;19476;51.448;6.674;2023-11-21T03:50:58;15.60;57.10
33105;DHT22;19476;51.448;6.674;2023-11-21T03:53:24;15.60;57.20
33105;DHT22;19476;51.448;6.674;2023-11-21T03:55:50;15.60;57.20
33105;DHT22;19476;51.448;6.674;2023-11-21T03:58:15;15.60;57.20
33105;DHT22;19476;51.448;6.674;2023-11-21T04:00:41;15.60;57.20
33105;DHT22;19476;51.448;6.674;2023-11-21T04:03:07;15.60;57.30
33105;DHT22;19476;51.448;6.674;2023-11-21T04:05:32;15.60;57.30
33105;DHT22;19476;51.448;6.674;2023-11-21T04:07:58;15.60;57.30
33105;DHT22;19476;51.448;6.674;2023-11-21T04:10:23;15.60;57.30
33105;DHT22;19476;51.448;6.674;2023-11-21T04:12:49;15.60;57.30
33105;DHT22;19476;51.448;6.674;2023-11-21T04:15:15;15.60;57.30
33105;DHT22;19476;51.448;6.674;2023-11-21T04:17:41;15.60;57.30
33105;DHT22;19476;51.448;6.674;2023-11-21T04:20:08;15.60;57.30
33105;DHT22;19476;51.448;6.674;2023-11-21T04:22:43;15.60;57.40
33105;DHT22;19476;51.448;6.674;2023-11-21T04:25:14;15.70;57.40
33105;DHT22;19476;51.448;6.674;2023-11-21T04:27:41;15.70;57.30
33105;DHT22;19476;51.448;6.674;2023-11-21T04:30:11;15.70;57.20
33105;DHT22;19476;51.448;6.674;2023-11-21T04:32:37;15.70;57.30
33105;DHT22;19476;51.448;6.674;2023-11-21T04:35:04;15.70;57.00
33105;DHT22;19476;51.448;6.674;2023-11-21T04:37:31;15.70;57.10
33105;DHT22;19476;51.448;6.674;2023-11-21T04:39:56;15.70;57.10
33105;DHT22;19476;51.448;6.674;2023-11-21T04:42:22;15.70;57.20
33105;DHT22;19476;51.448;6.674;2023-11-21T04:44:48;15.70;57.20
33105;DHT22;19476;51.448;6.674;2023-11-21T04:47:15;15.70;57.20
33105;DHT22;19476;51.448;6.674;2023-11-21T04:49:43;15.70;57.10
33105;DHT22;19476;51.448;6.674;2023-11-21T04:52:12;15.70;57.10
33105;DHT22;19476;51.448;6.674;2023-11-21T04:54:37;15.70;57.00
33105;DHT22;19476;51.448;6.674;2023-11-21T04:57:05;15.80;57.10
33105;DHT22;19476;51.448;6.674;2023-11-21T04:59:33;15.80;57.00
33105;DHT22;19476;51.448;6.674;2023-11-21T05:01:58;15.80;57.10
33105;DHT22;19476;51.448;6.674;2023-11-21T05:04:26;15.80;57.00
33105;DHT22;19476;51.448;6.674;2023-11-21T05:06:52;15.80;56.90
33105;DHT22;19476;51.448;6.674;2023-11-21T05:09:18;15.80;56.90
33105;DHT22;19476;51.448;6.674;2023-11-21T05:11:43;15.80;56.90
33105;DHT22;19476;51.448;6.674;2023-11-21T05:14:09;15.80;56.80
33105;DHT22;19476;51.448;6.674;2023-11-21T05:16:35;15.80;56.90
33105;DHT22;19476;51.448;6.674;2023-11-21T05:19:01;15.80;56.80
33105;DHT22;19476;51.448;6.674;2023-11-21T05:21:28;15.70;56.70
33105;DHT22;19476;51.448;6.674;2023-11-21T05:23:55;15.70;56.80
33105;DHT22;19476;51.448;6.674;2023-11-21T05:26:21;15.70;56.80
33105;DHT22;19476;51.448;6.674;2023-11-21T05:28:47;15.60;56.90
33105;DHT22;19476;51.448;6.674;2023-11-21T05:31:13;15.60;57.00
33105;DHT22;19476;51.448;6.674;2023-11-21T05:33:39;15.60;57.10
33105;DHT22;19476;51.448;6.674;2023-11-21T05:36:05;15.50;57.10
33105;DHT22;19476;51.448;6.674;2023-11-21T05:38:33;15.50;57.30
33105;DHT22;19476;51.448;6.674;2023-11-21T05:40:59;15.50;57.30
33105;DHT22;19476;51.448;6.674;2023-11-21T05:43:25;15.40;57.40
33105;DHT22;19476;51.448;6.674;2023-11-21T05:45:50;15.40;57.50
33105;DHT22;19476;51.448;6.674;2023-11-21T05:48:16;15.30;57.60
33105;DHT22;19476;51.448;6.674;2023-11-21T05:50:42;15.30;57.70
33105;DHT22;19476;51.448;6.674;2023-11-21T05:53:08;15.30;57.80
33105;DHT22;19476;51.448;6.674;2023-11-21T05:55:35;15.20;57.90
33105;DHT22;19476;51.448;6.674;2023-11-21T05:58:01;15.20;58.10
33105;DHT22;19476;51.448;6.674;2023-11-21T06:00:27;15.20;58.20
33105;DHT22;19476;51.448;6.674;2023-11-21T06:02:53;15.20;58.40
33105;DHT22;19476;51.448;6.674;2023-11-21T06:05:21;15.20;58.50
33105;DHT22;19476;51.448;6.674;2023-11-21T06:07:49;15.20;58.70
33105;DHT22;19476;51.448;6.674;2023-11-21T06:10:15;15.20;58.80
33105;DHT22;19476;51.448;6.674;2023-11-21T06:12:43;15.20;58.80
33105;DHT22;19476;51.448;6.674;2023-11-21T06:15:09;15.20;58.70
33105;DHT22;19476;51.448;6.674;2023-11-21T06:17:39;15.30;58.70
33105;DHT22;19476;51.448;6.674;2023-11-21T06:20:07;15.30;58.60
33105;DHT22;19476;51.448;6.674;2023-11-21T06:22:43;15.30;58.60
33105;DHT22;19476;51.448;6.674;2023-11-21T06:25:09;15.30;58.60
33105;DHT22;19476;51.448;6.674;2023-11-21T06:27:39;15.30;58.80
33105;DHT22;19476;51.448;6.674;2023-11-21T06:30:05;15.30;58.70
33105;DHT22;19476;51.448;6.674;2023-11-21T06:32:32;15.30;58.80
33105;DHT22;19476;51.448;6.674;2023-11-21T06:34:58;15.30;58.80
33105;DHT22;19476;51.448;6.674;2023-11-21T06:37:27;15.40;58.90
33105;DHT22;19476;51.448;6.674;2023-11-21T06:39:53;15.40;58.90
33105;DHT22;19476;51.448;6.674;2023-11-21T06:42:19;15.40;58.70
33105;DHT22;19476;51.448;6.674;2023-11-21T06:44:47;15.50;58.70
33105;DHT22;19476;51.448;6.674;2023-11-21T06:47:13;15.50;58.70
33105;DHT22;19476;51.448;6.674;2023-11-21T06:49:39;15.50;58.40
33105;DHT22;19476;51.448;6.674;2023-11-21T06:52:05;15.50;58.20
33105;DHT22;19476;51.448;6.674;2023-11-21T06:54:34;15.50;58.20
33105;DHT22;19476;51.448;6.674;2023-11-21T06:57:00;15.50;58.30
33105;DHT22;19476;51.448;6.674;2023-11-21T06:59:28;15.50;58.30
33105;DHT22;19476;51.448;6.674;2023-11-21T07:01:54;15.50;58.40
33105;DHT22;19476;51.448;6.674;2023-11-21T07:04:20;15.50;58.50
33105;DHT22;19476;51.448;6.674;2023-11-21T07:06:45;15.50;58.50
33105;DHT22;19476;51.448;6.674;2023-11-21T07:09:11;15.50;58.60
33105;DHT22;19476;51.448;6.674;2023-11-21T07:11:39;15.50;58.50
33105;DHT22;19476;51.448;6.674;2023-11-21T07:14:04;15.50;58.50
33105;DHT22;19476;51.448;6.674;2023-11-21T07:16:37;15.60;58.50
33105;DHT22;19476;51.448;6.674;2023-11-21T07:19:06;15.60;58.50
33105;DHT22;19476;51.448;6.674;2023-11-21T07:21:36;15.60;58.40
33105;DHT22;19476;51.448;6.674;2023-11-21T07:24:02;15.60;58.50
33105;DHT22;19476;51.448;6.674;2023-11-21T07:26:29;15.60;58.40
33105;DHT22;19476;51.448;6.674;2023-11-21T07:28:55;15.60;58.40
33105;DHT22;19476;51.448;6.674;2023-11-21T07:31:21;15.60;58.40
33105;DHT22;19476;51.448;6.674;2023-11-21T07:33:47;15.60;58.50
33105;DHT22;19476;51.448;6.674;2023-11-21T07:36:14;15.60;58.50
33105;DHT22;19476;51.448;6.674;2023-11-21T07:38:41;15.60;58.50
33105;DHT22;19476;51.448;6.674;2023-11-21T07:41:07;15.60;58.50
33105;DHT22;19476;51.448;6.674;2023-11-21T07:43:35;15.60;58.40
33105;DHT22;19476;51.448;6.674;2023-11-21T07:46:04;15.60;58.40
33105;DHT22;19476;51.448;6.674;2023-11-21T07:48:34;15.60;58.50
33105;DHT22;19476;51.448;6.674;2023-11-21T07:51:00;15.60;58.50
33105;DHT22;19476;51.448;6.674;2023-11-21T07:53:27;15.60;58.50
33105;DHT22;19476;51.448;6.674;2023-11-21T07:55:56;15.60;58.40
33105;DHT22;19476;51.448;6.674;2023-11-21T07:58:22;15.60;58.30
33105;DHT22;19476;51.448;6.674;2023-11-21T08:00:47;15.60;58.30
33105;DHT22;19476;51.448;6.674;2023-11-21T08:03:13;15.50;58.30
33105;DHT22;19476;51.448;6.674;2023-11-21T08:05:39;15.50;58.40
33105;DHT22;19476;51.448;6.674;2023-11-21T08:08:05;15.50;58.60
33105;DHT22;19476;51.448;6.674;2023-11-21T08:10:31;15.50;58.60
33105;DHT22;19476;51.448;6.674;2023-11-21T08:12:57;15.50;58.70
33105;DHT22;19476;51.448;6.674;2023-11-21T08:15:23;15.50;58.70
33105;DHT22;19476;51.448;6.674;2023-11-21T08:17:49;15.50;58.70
33105;DHT22;19476;51.448;6.674;2023-11-21T08:20:15;15.50;58.80
33105;DHT22;19476;51.448;6.674;2023-11-21T08:22:42;15.50;58.80
33105;DHT22;19476;51.448;6.674;2023-11-21T08:25:08;15.50;58.90
33105;DHT22;19476;51.448;6.674;2023-11-21T08:27:34;15.50;58.90
33105;DHT22;19476;51.448;6.674;2023-11-21T08:30:03;15.50;58.80
33105;DHT22;19476;51.448;6.674;2023-11-21T08:32:29;15.50;58.80
33105;DHT22;19476;51.448;6.674;2023-11-21T08:34:59;15.50;58.90
33105;DHT22;19476;51.448;6.674;2023-11-21T08:37:25;15.50;59.10
33105;DHT22;19476;51.448;6.674;2023-11-21T08:39:52;15.50;59.00
33105;DHT22;19476;51.448;6.674;2023-11-21T08:42:19;15.50;59.00
33105;DHT22;19476;51.448;6.674;2023-11-21T08:44:45;15.60;59.10
33105;DHT22;19476;51.448;6.674;2023-11-21T08:47:11;15.60;59.00
33105;DHT22;19476;51.448;6.674;2023-11-21T08:49:37;15.60;59.10
33105;DHT22;19476;51.448;6.674;2023-11-21T08:52:03;15.60;59.10
33105;DHT22;19476;51.448;6.674;2023-11-21T08:54:31;15.60;59.10
33105;DHT22;19476;51.448;6.674;2023-11-21T08:56:57;15.70;59.10
33105;DHT22;19476;51.448;6.674;2023-11-21T08:59:24;15.70;59.10
33105;DHT22;19476;51.448;6.674;2023-11-21T09:01:50;15.70;59.10
33105;DHT22;19476;51.448;6.674;2023-11-21T09:04:16;15.80;59.20
33105;DHT22;19476;51.448;6.674;2023-11-21T09:06:41;15.80;58.90
33105;DHT22;19476;51.448;6.674;2023-11-21T09:09:07;15.90;58.90
33105;DHT22;19476;51.448;6.674;2023-11-21T09:11:36;15.90;58.90
33105;DHT22;19476;51.448;6.674;2023-11-21T09:14:03;15.90;58.80
33105;DHT22;19476;51.448;6.674;2023-11-21T09:16:31;15.90;58.70
33105;DHT22;19476;51.448;6.674;2023-11-21T09:18:58;16.00;58.60
33105;DHT22;19476;51.448;6.674;2023-11-21T09:21:26;16.00;58.60
33105;DHT22;19476;51.448;6.674;2023-11-21T09:23:54;15.90;58.40
33105;DHT22;19476;51.448;6.674;2023-11-21T09:26:20;16.00;58.50
33105;DHT22;19476;51.448;6.674;2023-11-21T09:28:45;16.00;58.30
33105;DHT22;19476;51.448;6.674;2023-11-21T09:31:30;16.10;58.30
33105;DHT22;19476;51.448;6.674;2023-11-21T09:33:56;16.10;58.30
33105;DHT22;19476;51.448;6.674;2023-11-21T09:36:22;16.10;58.30
33105;DHT22;19476;51.448;6.674;2023-11-21T09:38:52;16.10;58.20
33105;DHT22;19476;51.448;6.674;2023-11-21T09:41:52;16.10;58.10
33105;DHT22;19476;51.448;6.674;2023-11-21T09:47:07;16.20;58.00
33105;DHT22;19476;51.448;6.674;2023-11-21T09:49:37;16.10;58.10
33105;DHT22;19476;51.448;6.674;2023-11-21T09:52:04;16.20;58.10
33105;DHT22;19476;51.448;6.674;2023-11-21T09:54:31;16.20;58.00
33105;DHT22;19476;51.448;6.674;2023-11-21T09:56:59;16.20;58.10
33105;DHT22;19476;51.448;6.674;2023-11-21T09:59:29;16.20;58.00
33105;DHT22;19476;51.448;6.674;2023-11-21T10:01:56;16.20;58.10
33105;DHT22;19476;51.448;6.674;2023-11-21T10:04:25;16.20;58.20
33105;DHT22;19476;51.448;6.674;2023-11-21T10:06:53;16.20;58.20
33105;DHT22;19476;51.448;6.674;2023-11-21T10:09:20;16.20;58.10
33105;DHT22;19476;51.448;6.674;2023-11-21T10:11:47;16.30;58.10
33105;DHT22;19476;51.448;6.674;2023-11-21T10:14:17;16.30;58.00
33105;DHT22;19476;51.448;6.674;2023-11-21T10:16:46;16.40;58.10
33105;DHT22;19476;51.448;6.674;2023-11-21T10:19:13;16.40;58.10
33105;DHT22;19476;51.448;6.674;2023-11-21T10:21:39;16.40;58.10
33105;DHT22;19476;51.448;6.674;2023-11-21T10:24:05;16.40;57.90
33105;DHT22;19476;51.448;6.674;2023-11-21T10:26:32;16.50;57.90
33105;DHT22;19476;51.448;6.674;2023-11-21T10:29:00;16.50;57.80
33105;DHT22;19476;51.448;6.674;2023-11-21T10:31:32;16.50;57.80
33105;DHT22;19476;51.448;6.674;2023-11-21T10:34:34;16.60;57.40
33105;DHT22;19476;51.448;6.674;2023-11-21T10:37:11;16.60;57.20
33105;DHT22;19476;51.448;6.674;2023-11-21T10:39:39;16.60;57.30
33105;DHT22;19476;51.448;6.674;2023-11-21T10:42:07;16.60;57.40
33105;DHT22;19476;51.448;6.674;2023-11-21T10:44:34;16.60;57.50
33105;DHT22;19476;51.448;6.674;2023-11-21T10:47:00;16.60;57.40
33105;DHT22;19476;51.448;6.674;2023-11-21T10:49:26;16.70;57.40
33105;DHT22;19476;51.448;6.674;2023-11-21T10:51:53;16.70;57.50
33105;DHT22;19476;51.448;6.674;2023-11-21T10:54:23;16.70;57.30
33105;DHT22;19476;51.448;6.674;2023-11-21T10:56:50;16.70;57.30
33105;DHT22;19476;51.448;6.674;2023-11-21T10:59:19;16.80;57.40
33105;DHT22;19476;51.448;6.674;2023-11-21T11:01:47;16.80;57.20
33105;DHT22;19476;51.448;6.674;2023-11-21T11:04:18;16.80;57.30
33105;DHT22;19476;51.448;6.674;2023-11-21T11:06:54;16.80;57.20
33105;DHT22;19476;51.448;6.674;2023-11-21T11:09:22;16.80;57.30
33105;DHT22;19476;51.448;6.674;2023-11-21T11:11:48;16.80;57.30
33105;DHT22;19476;51.448;6.674;2023-11-21T11:14:14;16.80;57.40
33105;DHT22;19476;51.448;6.674;2023-11-21T11:16:41;16.90;57.40
33105;DHT22;19476;51.448;6.674;2023-11-21T11:19:07;16.90;57.20
33105;DHT22;19476;51.448;6.674;2023-11-21T11:29:26;16.90;57.00
33105;DHT22;19476;51.448;6.674;2023-11-21T11:34:57;16.90;57.20
33105;DHT22;19476;51.448;6.674;2023-11-21T11:37:25;16.90;57.20
33105;DHT22;19476;51.448;6.674;2023-11-21T11:39:52;16.90;57.10
33105;DHT22;19476;51.448;6.674;2023-11-21T11:42:21;16.80;57.10
33105;DHT22;19476;51.448;6.674;2023-11-21T11:44:49;16.90;57.20
33105;DHT22;19476;51.448;6.674;2023-11-21T11:50:05;16.90;57.30
33105;DHT22;19476;51.448;6.674;2023-11-21T11:52:46;16.90;57.40
33105;DHT22;19476;51.448;6.674;2023-11-21T11:55:16;16.90;57.40
33105;DHT22;19476;51.448;6.674;2023-11-21T11:57:47;16.90;57.40
33105;DHT22;19476;51.448;6.674;2023-11-21T12:02:49;16.90;57.30
33105;DHT22;19476;51.448;6.674;2023-11-21T12:05:19;16.90;57.20
33105;DHT22;19476;51.448;6.674;2023-11-21T12:07:50;16.90;57.10
33105;DHT22;19476;51.448;6.674;2023-11-21T12:10:26;17.00;57.10
33105;DHT22;19476;51.448;6.674;2023-11-21T12:13:07;17.00;56.90
33105;DHT22;19476;51.448;6.674;2023-11-21T12:15:33;17.00;56.70
33105;DHT22;19476;51.448;6.674;2023-11-21T12:17:59;16.90;56.90
33105;DHT22;19476;51.448;6.674;2023-11-21T12:20:26;16.90;56.80
33105;DHT22;19476;51.448;6.674;2023-11-21T12:22:56;16.90;56.90
33105;DHT22;19476;51.448;6.674;2023-11-21T12:25:26;16.80;57.00
33105;DHT22;19476;51.448;6.674;2023-11-21T12:27:55;16.80;57.10
33105;DHT22;19476;51.448;6.674;2023-11-21T12:30:23;16.80;57.30
33105;DHT22;19476;51.448;6.674;2023-11-21T12:32:50;16.80;57.30
33105;DHT22;19476;51.448;6.674;2023-11-21T12:35:18;16.80;57.30
33105;DHT22;19476;51.448;6.674;2023-11-21T12:37:48;16.80;57.40
33105;DHT22;19476;51.448;6.674;2023-11-21T12:40:15;16.80;57.30
33105;DHT22;19476;51.448;6.674;2023-11-21T12:42:45;16.80;57.30
33105;DHT22;19476;51.448;6.674;2023-11-21T12:45:23;16.80;57.30
33105;DHT22;19476;51.448;6.674;2023-11-21T12:48:00;16.80;57.40
33105;DHT22;19476;51.448;6.674;2023-11-21T12:50:29;16.80;57.50
33105;DHT22;19476;51.448;6.674;2023-11-21T12:53:04;16.80;57.40
33105;DHT22;19476;51.448;6.674;2023-11-21T12:55:32;16.80;57.40
33105;DHT22;19476;51.448;6.674;2023-11-21T12:57:58;16.80;57.30
33105;DHT22;19476;51.448;6.674;2023-11-21T13:03:06;16.80;57.40
33105;DHT22;19476;51.448;6.674;2023-11-21T13:05:34;16.80;57.40
33105;DHT22;19476;51.448;6.674;2023-11-21T13:08:03;16.80;57.60
33105;DHT22;19476;51.448;6.674;2023-11-21T13:10:32;16.70;57.60
33105;DHT22;19476;51.448;6.674;2023-11-21T13:12:58;16.70;57.70
33105;DHT22;19476;51.448;6.674;2023-11-21T13:15:26;16.70;57.80
33105;DHT22;19476;51.448;6.674;2023-11-21T13:17:52;16.70;57.90
33105;DHT22;19476;51.448;6.674;2023-11-21T13:20:21;16.70;58.10
33105;DHT22;19476;51.448;6.674;2023-11-21T13:22:53;16.70;58.40
33105;DHT22;19476;51.448;6.674;2023-11-21T13:25:38;16.70;58.70
33105;DHT22;19476;51.448;6.674;2023-11-21T13:28:07;16.70;58.50
33105;DHT22;19476;51.448;6.674;2023-11-21T13:30:36;16.70;58.60
33105;DHT22;19476;51.448;6.674;2023-11-21T13:33:03;16.70;58.60
33105;DHT22;19476;51.448;6.674;2023-11-21T13:35:37;16.80;58.80
33105;DHT22;19476;51.448;6.674;2023-11-21T13:38:10;16.80;59.40
33105;DHT22;19476;51.448;6.674;2023-11-21T13:40:38;16.80;58.60
33105;DHT22;19476;51.448;6.674;2023-11-21T13:43:13;16.80;58.60
33105;DHT22;19476;51.448;6.674;2023-11-21T13:45:40;16.70;58.70
33105;DHT22;19476;51.448;6.674;2023-11-21T13:48:07;16.70;58.70
33105;DHT22;19476;51.448;6.674;2023-11-21T13:50:39;16.70;58.80
33105;DHT22;19476;51.448;6.674;2023-11-21T13:53:12;16.70;58.80
33105;DHT22;19476;51.448;6.674;2023-11-21T13:55:48;16.70;58.80
33105;DHT22;19476;51.448;6.674;2023-11-21T13:58:15;16.70;58.90
33105;DHT22;19476;51.448;6.674;2023-11-21T14:00:48;16.70;58.90
33105;DHT22;19476;51.448;6.674;2023-11-21T14:03:29;16.70;58.80
33105;DHT22;19476;51.448;6.674;2023-11-21T14:06:25;16.70;59.00
33105;DHT22;19476;51.448;6.674;2023-11-21T14:08:58;16.60;58.90
33105;DHT22;19476;51.448;6.674;2023-11-21T14:11:25;16.60;58.90
33105;DHT22;19476;51.448;6.674;2023-11-21T14:13:51;16.60;59.00
33105;DHT22;19476;51.448;6.674;2023-11-21T14:16:17;16.60;59.00
33105;DHT22;19476;51.448;6.674;2023-11-21T14:18:44;16.60;59.00
33105;DHT22;19476;51.448;6.674;2023-11-21T14:21:21;16.40;58.80
33105;DHT22;19476;51.448;6.674;2023-11-21T14:23:47;16.60;58.80
33105;DHT22;19476;51.448;6.674;2023-11-21T14:26:14;16.60;58.80
33105;DHT22;19476;51.448;6.674;2023-11-21T14:28:41;16.60;58.70
33105;DHT22;19476;51.448;6.674;2023-11-21T14:31:08;16.50;58.70
33105;DHT22;19476;51.448;6.674;2023-11-21T14:33:39;16.50;58.60
33105;DHT22;19476;51.448;6.674;2023-11-21T14:36:09;16.50;58.70
33105;DHT22;19476;51.448;6.674;2023-11-21T14:38:36;16.50;58.80
33105;DHT22;19476;51.448;6.674;2023-11-21T14:41:05;16.50;58.80
33105;DHT22;19476;51.448;6.674;2023-11-21T14:43:34;16.40;58.90
33105;DHT22;19476;51.448;6.674;2023-11-21T14:46:01;16.40;58.90
33105;DHT22;19476;51.448;6.674;2023-11-21T14:48:29;16.40;58.90
33105;DHT22;19476;51.448;6.674;2023-11-21T14:51:28;16.40;59.50
33105;DHT22;19476;51.448;6.674;2023-11-21T14:53:54;16.80;59.20
33105;DHT22;19476;51.448;6.674;2023-11-21T14:56:32;16.40;59.10
33105;DHT22;19476;51.448;6.674;2023-11-21T14:59:01;16.40;59.10
33105;DHT22;19476;51.448;6.674;2023-11-21T15:01:42;16.40;59.20
33105;DHT22;19476;51.448;6.674;2023-11-21T15:04:23;16.40;59.20
33105;DHT22;19476;51.448;6.674;2023-11-21T15:07:05;16.40;59.10
33105;DHT22;19476;51.448;6.674;2023-11-21T15:09:31;16.40;59.10
33105;DHT22;19476;51.448;6.674;2023-11-21T15:11:58;16.40;59.00
33105;DHT22;19476;51.448;6.674;2023-11-21T15:14:29;16.40;58.90
33105;DHT22;19476;51.448;6.674;2023-11-21T15:17:01;16.40;59.00
33105;DHT22;19476;51.448;6.674;2023-11-21T15:19:28;16.40;59.00
33105;DHT22;19476;51.448;6.674;2023-11-21T15:21:56;16.40;58.70
33105;DHT22;19476;51.448;6.674;2023-11-21T15:24:22;16.40;58.50
33105;DHT22;19476;51.448;6.674;2023-11-21T15:26:48;16.40;58.50
33105;DHT22;19476;51.448;6.674;2023-11-21T15:29:16;16.40;58.40
33105;DHT22;19476;51.448;6.674;2023-11-21T15:31:42;16.30;58.30
33105;DHT22;19476;51.448;6.674;2023-11-21T15:34:14;16.30;58.10
33105;DHT22;19476;51.448;6.674;2023-11-21T15:36:41;16.30;58.10
33105;DHT22;19476;51.448;6.674;2023-11-21T15:39:07;16.30;58.00
33105;DHT22;19476;51.448;6.674;2023-11-21T15:41:39;16.30;58.00
33105;DHT22;19476;51.448;6.674;2023-11-21T15:44:08;16.30;57.70
33105;DHT22;19476;51.448;6.674;2023-11-21T15:46:37;16.30;57.60
33105;DHT22;19476;51.448;6.674;2023-11-21T15:49:05;16.20;57.50
33105;DHT22;19476;51.448;6.674;2023-11-21T15:51:47;16.20;57.30
33105;DHT22;19476;51.448;6.674;2023-11-21T15:54:20;16.20;57.30
33105;DHT22;19476;51.448;6.674;2023-11-21T15:56:47;16.20;57.10